PWSweather.com
Personal Weather Stations
Station Observations
KCACHEST1
Chester, CA 96020

Chester, CA 96020

Lat: 40.2965, Lon: -121.228088

Elevation: 4530

Station Type: Davis Vantage Pro

http://www.chesterweathercenter.com/

Latest ConditionsUpdated 8:50:09 AM PDT Friday, Apr 29, 2016
Currently Today's Max Today's Min Today's Average
Temperature 44.3°F6.8°C 44.5°F6.9°C 34.0°F1.1°C 36.0°F2.2°C
Dew Point 35.9°F2.2°C 36.6°F2.6°C 28.2°F-2.1°C 30.4°F-0.9°C
Winds Calm Calm Calm SSECalm SSE - Calm Calm
Wind Gusts -- 1.0 mph1.6 kmh - -
Humidity 72% 85% 72% 80%
Pressure 29.82 in1009.8 mb 29.85 in1010.8 mb 29.78 in1008.5 mb -
Hour Temp Dew Point Humidity Winds Wind Gusts Pressure Precip Precip Rate Daily Precip Total
08:50 AM 44.3°F6.8°C 35.9°F2.2°C 72% Calm Calm -- 29.82 in1009.8 mb - 0.00 in0.0 mm 0.00 in0.0 mm
08:40 AM 44.5°F6.9°C 36.4°F2.4°C 73% Calm Calm 1.0 mph1.6 kmh 29.82 in1009.8 mb - 0.00 in0.0 mm 0.00 in0.0 mm
08:30 AM 44.4°F6.9°C 36.6°F2.6°C 74% Calm Calm -- 29.83 in1010.2 mb - 0.00 in0.0 mm 0.00 in0.0 mm
08:20 AM 42.6°F5.9°C 36.6°F2.6°C 79% Calm Calm -- 29.84 in1010.5 mb - 0.00 in0.0 mm 0.00 in0.0 mm
08:10 AM 40.6°F4.8°C 35.6°F2.0°C 82% Calm Calm -- 29.85 in1010.8 mb - 0.00 in0.0 mm 0.00 in0.0 mm
08:00 AM 39.5°F4.2°C 34.1°F1.2°C 81% Calm Calm -- 29.82 in1009.8 mb - 0.00 in0.0 mm 0.00 in0.0 mm
07:50 AM 38.8°F3.8°C 33.8°F1.0°C 82% Calm Calm -- 29.82 in1009.8 mb - 0.00 in0.0 mm 0.00 in0.0 mm
07:40 AM 38.1°F3.4°C 33.1°F0.6°C 82% Calm Calm -- 29.82 in1009.8 mb - 0.00 in0.0 mm 0.00 in0.0 mm
07:30 AM 37.2°F2.9°C 32.8°F0.4°C 84% Calm Calm -- 29.82 in1009.8 mb - 0.00 in0.0 mm 0.00 in0.0 mm
07:20 AM 36.3°F2.4°C 32.2°F0.1°C 85% Calm Calm -- 29.84 in1010.5 mb - 0.00 in0.0 mm 0.00 in0.0 mm
07:10 AM 35.7°F2.1°C 31.6°F-0.2°C 85% Calm Calm -- 29.82 in1009.8 mb - 0.00 in0.0 mm 0.00 in0.0 mm
07:00 AM 35.0°F1.7°C 30.9°F-0.6°C 85% Calm Calm -- 29.81 in1009.5 mb - 0.00 in0.0 mm 0.00 in0.0 mm
06:50 AM 34.5°F1.4°C 30.5°F-0.8°C 85% Calm Calm -- 29.81 in1009.5 mb - 0.00 in0.0 mm 0.00 in0.0 mm
06:40 AM 34.1°F1.2°C 29.8°F-1.2°C 84% Calm Calm -- 29.81 in1009.5 mb - 0.00 in0.0 mm 0.00 in0.0 mm
06:30 AM 34.0°F1.1°C 29.7°F-1.3°C 84% Calm Calm -- 29.81 in1009.5 mb - 0.00 in0.0 mm 0.00 in0.0 mm
06:20 AM 34.1°F1.2°C 29.4°F-1.4°C 83% Calm Calm -- 29.80 in1009.1 mb - 0.00 in0.0 mm 0.00 in0.0 mm
06:10 AM 34.1°F1.2°C 29.5°F-1.4°C 83% Calm Calm -- 29.80 in1009.1 mb - 0.00 in0.0 mm 0.00 in0.0 mm
06:00 AM 34.3°F1.3°C 29.7°F-1.3°C 83% Calm Calm -- 29.80 in1009.1 mb - 0.00 in0.0 mm 0.00 in0.0 mm
05:50 AM 34.3°F1.3°C 29.7°F-1.3°C 83% Calm Calm -- 29.80 in1009.1 mb - 0.00 in0.0 mm 0.00 in0.0 mm
05:40 AM 34.4°F1.3°C 29.5°F-1.4°C 82% Calm Calm -- 29.80 in1009.1 mb - 0.00 in0.0 mm 0.00 in0.0 mm
05:30 AM 34.6°F1.4°C 29.7°F-1.3°C 82% Calm Calm -- 29.79 in1008.8 mb - 0.00 in0.0 mm 0.00 in0.0 mm
05:20 AM 34.7°F1.5°C 29.5°F-1.4°C 81% Calm Calm -- 29.80 in1009.1 mb - 0.00 in0.0 mm 0.00 in0.0 mm
05:10 AM 34.9°F1.6°C 29.7°F-1.3°C 81% Calm Calm -- 29.80 in1009.1 mb - 0.00 in0.0 mm 0.00 in0.0 mm
05:00 AM 35.0°F1.7°C 29.8°F-1.2°C 81% Calm Calm -- 29.79 in1008.8 mb - 0.00 in0.0 mm 0.00 in0.0 mm
04:50 AM 35.2°F1.8°C 30.0°F-1.1°C 81% Calm Calm -- 29.79 in1008.8 mb - 0.00 in0.0 mm 0.00 in0.0 mm
04:40 AM 35.3°F1.8°C 30.1°F-1.1°C 81% Calm Calm -- 29.80 in1009.1 mb - 0.00 in0.0 mm 0.00 in0.0 mm
04:30 AM 35.2°F1.8°C 29.7°F-1.3°C 80% Calm Calm -- 29.80 in1009.1 mb - 0.00 in0.0 mm 0.00 in0.0 mm
04:20 AM 35.2°F1.8°C 30.0°F-1.1°C 81% Calm Calm -- 29.80 in1009.1 mb - 0.00 in0.0 mm 0.00 in0.0 mm
04:10 AM 35.0°F1.7°C 29.8°F-1.2°C 81% Calm Calm -- 29.79 in1008.8 mb - 0.00 in0.0 mm 0.00 in0.0 mm
04:00 AM 34.9°F1.6°C 29.7°F-1.3°C 81% Calm Calm -- 29.79 in1008.8 mb - 0.00 in0.0 mm 0.00 in0.0 mm
03:50 AM 34.9°F1.6°C 29.4°F-1.4°C 80% Calm Calm -- 29.79 in1008.8 mb - 0.00 in0.0 mm 0.00 in0.0 mm
03:40 AM 35.0°F1.7°C 29.1°F-1.6°C 79% Calm Calm -- 29.78 in1008.5 mb - 0.00 in0.0 mm 0.00 in0.0 mm
03:30 AM 35.0°F1.7°C 29.1°F-1.6°C 79% Calm Calm -- 29.78 in1008.5 mb - 0.00 in0.0 mm 0.00 in0.0 mm
03:20 AM 35.0°F1.7°C 29.1°F-1.6°C 79% Calm Calm -- 29.78 in1008.5 mb - 0.00 in0.0 mm 0.00 in0.0 mm
03:10 AM 34.9°F1.6°C 29.0°F-1.7°C 79% Calm Calm -- 29.79 in1008.8 mb - 0.00 in0.0 mm 0.00 in0.0 mm
03:00 AM 34.9°F1.6°C 29.0°F-1.7°C 79% Calm Calm -- 29.79 in1008.8 mb - 0.00 in0.0 mm 0.00 in0.0 mm
02:50 AM 34.5°F1.4°C 28.9°F-1.7°C 80% Calm Calm -- 29.80 in1009.1 mb - 0.00 in0.0 mm 0.00 in0.0 mm
02:40 AM 34.3°F1.3°C 28.8°F-1.8°C 80% Calm Calm -- 29.80 in1009.1 mb - 0.00 in0.0 mm 0.00 in0.0 mm
02:30 AM 34.3°F1.3°C 28.8°F-1.8°C 80% Calm Calm -- 29.80 in1009.1 mb - 0.00 in0.0 mm 0.00 in0.0 mm
02:20 AM 34.3°F1.3°C 28.8°F-1.8°C 80% Calm Calm -- 29.80 in1009.1 mb - 0.00 in0.0 mm 0.00 in0.0 mm
02:10 AM 34.2°F1.2°C 28.7°F-1.8°C 80% Calm Calm -- 29.80 in1009.1 mb - 0.00 in0.0 mm 0.00 in0.0 mm
02:00 AM 34.0°F1.1°C 28.2°F-2.1°C 79% Calm Calm -- 29.78 in1008.5 mb - 0.00 in0.0 mm 0.00 in0.0 mm
01:50 AM 34.0°F1.1°C 28.2°F-2.1°C 79% Calm Calm -- 29.78 in1008.5 mb - 0.00 in0.0 mm 0.00 in0.0 mm
01:40 AM 34.1°F1.2°C 28.3°F-2.1°C 79% Calm Calm -- 29.79 in1008.8 mb - 0.00 in0.0 mm 0.00 in0.0 mm
01:30 AM 34.3°F1.3°C 28.5°F-1.9°C 79% Calm Calm -- 29.80 in1009.1 mb - 0.00 in0.0 mm 0.00 in0.0 mm
01:20 AM 34.7°F1.5°C 28.6°F-1.9°C 78% Calm Calm -- 29.80 in1009.1 mb - 0.00 in0.0 mm 0.00 in0.0 mm
01:10 AM 35.1°F1.7°C 29.0°F-1.7°C 78% Calm Calm -- 29.79 in1008.8 mb - 0.00 in0.0 mm 0.00 in0.0 mm
01:00 AM 35.5°F1.9°C 29.0°F-1.7°C 77% Calm Calm -- 29.80 in1009.1 mb - 0.00 in0.0 mm 0.00 in0.0 mm
12:50 AM 35.9°F2.2°C 29.1°F-1.6°C 76% Calm Calm -- 29.80 in1009.1 mb - 0.00 in0.0 mm 0.00 in0.0 mm
12:40 AM 36.3°F2.4°C 29.5°F-1.4°C 76% Calm Calm -- 29.79 in1008.8 mb - 0.00 in0.0 mm 0.00 in0.0 mm
12:30 AM 36.6°F2.6°C 29.4°F-1.4°C 75% Calm Calm -- 29.79 in1008.8 mb - 0.00 in0.0 mm 0.00 in0.0 mm
12:20 AM 37.0°F2.8°C 29.8°F-1.2°C 75% Calm Calm -- 29.79 in1008.8 mb - 0.00 in0.0 mm 0.00 in0.0 mm
12:10 AM 37.2°F2.9°C 30.0°F-1.1°C 75% Calm Calm -- 29.80 in1009.1 mb - 0.00 in0.0 mm 0.00 in0.0 mm
12:00 AM 37.6°F3.1°C 30.1°F-1.1°C 74% Calm Calm -- 29.80 in1009.1 mb - 0.00 in0.0 mm 0.00 in0.0 mm